sensor_id;sensor_type;location;lat;lon;timestamp;temperature;humidity
20487;DHT22;10402;49.012;8.370;2023-05-09T00:00:32;17.10;97.60
20487;DHT22;10402;49.012;8.370;2023-05-09T00:02:58;17.10;97.30
20487;DHT22;10402;49.012;8.370;2023-05-09T00:05:24;17.10;97.40
20487;DHT22;10402;49.012;8.370;2023-05-09T00:07:49;17.10;97.40
20487;DHT22;10402;49.012;8.370;2023-05-09T00:10:15;17.10;97.40
20487;DHT22;10402;49.012;8.370;2023-05-09T00:12:41;17.00;97.40
20487;DHT22;10402;49.012;8.370;2023-05-09T00:15:08;17.00;97.40
20487;DHT22;10402;49.012;8.370;2023-05-09T00:17:34;17.10;97.50
20487;DHT22;10402;49.012;8.370;2023-05-09T00:20:01;17.00;97.50
20487;DHT22;10402;49.012;8.370;2023-05-09T00:22:29;17.10;97.50
20487;DHT22;10402;49.012;8.370;2023-05-09T00:24:55;17.10;97.50
20487;DHT22;10402;49.012;8.370;2023-05-09T00:27:20;17.10;97.50
20487;DHT22;10402;49.012;8.370;2023-05-09T00:29:46;17.10;97.50
20487;DHT22;10402;49.012;8.370;2023-05-09T00:32:11;17.10;97.50
20487;DHT22;10402;49.012;8.370;2023-05-09T00:34:37;17.10;97.50
20487;DHT22;10402;49.012;8.370;2023-05-09T00:37:02;17.10;97.50
20487;DHT22;10402;49.012;8.370;2023-05-09T00:39:28;17.10;97.70
20487;DHT22;10402;49.012;8.370;2023-05-09T00:41:55;17.10;97.60
20487;DHT22;10402;49.012;8.370;2023-05-09T00:44:21;17.10;97.60
20487;DHT22;10402;49.012;8.370;2023-05-09T00:46:46;17.10;97.60
20487;DHT22;10402;49.012;8.370;2023-05-09T00:49:12;17.10;97.60
20487;DHT22;10402;49.012;8.370;2023-05-09T00:51:39;17.10;97.60
20487;DHT22;10402;49.012;8.370;2023-05-09T00:54:06;17.10;97.60
20487;DHT22;10402;49.012;8.370;2023-05-09T00:56:32;17.10;97.60
20487;DHT22;10402;49.012;8.370;2023-05-09T00:58:58;17.10;97.60
20487;DHT22;10402;49.012;8.370;2023-05-09T01:01:23;17.10;97.60
20487;DHT22;10402;49.012;8.370;2023-05-09T01:03:49;17.10;97.60
20487;DHT22;10402;49.012;8.370;2023-05-09T01:06:37;17.10;97.60
20487;DHT22;10402;49.012;8.370;2023-05-09T01:09:52;17.10;97.60
20487;DHT22;10402;49.012;8.370;2023-05-09T01:12:36;17.00;97.60
20487;DHT22;10402;49.012;8.370;2023-05-09T01:31:44;17.00;97.60
20487;DHT22;10402;49.012;8.370;2023-05-09T01:34:12;17.00;97.70
20487;DHT22;10402;49.012;8.370;2023-05-09T01:36:39;17.00;97.70
20487;DHT22;10402;49.012;8.370;2023-05-09T01:39:09;17.00;97.70
20487;DHT22;10402;49.012;8.370;2023-05-09T01:41:36;17.00;97.70
20487;DHT22;10402;49.012;8.370;2023-05-09T01:44:04;17.00;97.70
20487;DHT22;10402;49.012;8.370;2023-05-09T01:46:32;16.90;97.70
20487;DHT22;10402;49.012;8.370;2023-05-09T01:49:01;17.00;97.80
20487;DHT22;10402;49.012;8.370;2023-05-09T01:51:27;17.00;97.80
20487;DHT22;10402;49.012;8.370;2023-05-09T01:53:55;17.00;97.80
20487;DHT22;10402;49.012;8.370;2023-05-09T01:56:21;17.00;97.70
20487;DHT22;10402;49.012;8.370;2023-05-09T01:58:49;16.90;97.70
20487;DHT22;10402;49.012;8.370;2023-05-09T02:01:15;16.90;97.70
20487;DHT22;10402;49.012;8.370;2023-05-09T02:03:42;16.90;97.80
20487;DHT22;10402;49.012;8.370;2023-05-09T02:06:09;16.90;97.80
20487;DHT22;10402;49.012;8.370;2023-05-09T02:08:35;16.90;97.80
20487;DHT22;10402;49.012;8.370;2023-05-09T02:11:01;16.90;97.80
20487;DHT22;10402;49.012;8.370;2023-05-09T02:13:27;16.90;97.80
20487;DHT22;10402;49.012;8.370;2023-05-09T02:15:54;17.00;97.90
20487;DHT22;10402;49.012;8.370;2023-05-09T02:18:19;17.00;97.80
20487;DHT22;10402;49.012;8.370;2023-05-09T02:20:46;17.00;97.80
20487;DHT22;10402;49.012;8.370;2023-05-09T02:23:11;17.00;97.80
20487;DHT22;10402;49.012;8.370;2023-05-09T02:25:38;17.00;97.90
20487;DHT22;10402;49.012;8.370;2023-05-09T02:28:03;16.90;97.80
20487;DHT22;10402;49.012;8.370;2023-05-09T02:30:35;16.90;97.80
20487;DHT22;10402;49.012;8.370;2023-05-09T02:33:05;17.00;97.90
20487;DHT22;10402;49.012;8.370;2023-05-09T02:35:32;16.90;97.80
20487;DHT22;10402;49.012;8.370;2023-05-09T02:37:58;17.00;97.90
20487;DHT22;10402;49.012;8.370;2023-05-09T02:40:25;17.00;97.90
20487;DHT22;10402;49.012;8.370;2023-05-09T02:42:52;17.00;97.90
20487;DHT22;10402;49.012;8.370;2023-05-09T02:45:17;17.00;97.90
20487;DHT22;10402;49.012;8.370;2023-05-09T02:47:43;17.00;97.90
20487;DHT22;10402;49.012;8.370;2023-05-09T02:50:09;17.00;97.90
20487;DHT22;10402;49.012;8.370;2023-05-09T02:52:34;17.00;97.90
20487;DHT22;10402;49.012;8.370;2023-05-09T02:55:00;17.00;97.90
20487;DHT22;10402;49.012;8.370;2023-05-09T02:57:25;17.00;98.30
20487;DHT22;10402;49.012;8.370;2023-05-09T02:59:51;17.00;97.90
20487;DHT22;10402;49.012;8.370;2023-05-09T03:02:16;17.00;97.90
20487;DHT22;10402;49.012;8.370;2023-05-09T03:04:42;17.00;97.90
20487;DHT22;10402;49.012;8.370;2023-05-09T03:07:07;17.00;97.90
20487;DHT22;10402;49.012;8.370;2023-05-09T03:09:33;16.90;97.90
20487;DHT22;10402;49.012;8.370;2023-05-09T03:11:59;16.90;98.00
20487;DHT22;10402;49.012;8.370;2023-05-09T03:14:24;16.80;98.00
20487;DHT22;10402;49.012;8.370;2023-05-09T03:16:50;16.90;98.10
20487;DHT22;10402;49.012;8.370;2023-05-09T03:19:16;16.90;98.10
20487;DHT22;10402;49.012;8.370;2023-05-09T03:21:41;16.80;98.10
20487;DHT22;10402;49.012;8.370;2023-05-09T03:24:07;16.80;98.10
20487;DHT22;10402;49.012;8.370;2023-05-09T03:26:32;16.90;98.10
20487;DHT22;10402;49.012;8.370;2023-05-09T03:29:00;16.80;98.10
20487;DHT22;10402;49.012;8.370;2023-05-09T03:31:26;16.80;98.10
20487;DHT22;10402;49.012;8.370;2023-05-09T03:33:51;16.80;98.10
20487;DHT22;10402;49.012;8.370;2023-05-09T03:36:17;16.80;98.20
20487;DHT22;10402;49.012;8.370;2023-05-09T03:38:42;16.80;98.20
20487;DHT22;10402;49.012;8.370;2023-05-09T03:41:08;16.80;98.30
20487;DHT22;10402;49.012;8.370;2023-05-09T03:43:34;16.80;98.30
20487;DHT22;10402;49.012;8.370;2023-05-09T03:45:59;16.80;98.30
20487;DHT22;10402;49.012;8.370;2023-05-09T03:48:25;16.80;98.30
20487;DHT22;10402;49.012;8.370;2023-05-09T03:50:50;16.80;98.30
20487;DHT22;10402;49.012;8.370;2023-05-09T03:53:16;16.90;98.30
20487;DHT22;10402;49.012;8.370;2023-05-09T03:55:41;16.80;98.30
20487;DHT22;10402;49.012;8.370;2023-05-09T03:58:07;16.80;98.30
20487;DHT22;10402;49.012;8.370;2023-05-09T04:00:32;16.80;98.30
20487;DHT22;10402;49.012;8.370;2023-05-09T04:02:58;16.80;98.30
20487;DHT22;10402;49.012;8.370;2023-05-09T04:05:24;16.80;98.30
20487;DHT22;10402;49.012;8.370;2023-05-09T04:07:51;16.80;98.30
20487;DHT22;10402;49.012;8.370;2023-05-09T04:10:16;16.80;98.30
20487;DHT22;10402;49.012;8.370;2023-05-09T04:12:42;16.80;98.30
20487;DHT22;10402;49.012;8.370;2023-05-09T04:15:08;16.80;98.30
20487;DHT22;10402;49.012;8.370;2023-05-09T04:17:34;16.80;98.30
20487;DHT22;10402;49.012;8.370;2023-05-09T04:19:59;16.90;98.30
20487;DHT22;10402;49.012;8.370;2023-05-09T04:22:25;16.90;98.30
20487;DHT22;10402;49.012;8.370;2023-05-09T04:24:50;16.90;98.30
20487;DHT22;10402;49.012;8.370;2023-05-09T04:27:16;16.90;98.30
20487;DHT22;10402;49.012;8.370;2023-05-09T04:29:41;16.90;98.30
20487;DHT22;10402;49.012;8.370;2023-05-09T04:32:07;16.90;98.30
20487;DHT22;10402;49.012;8.370;2023-05-09T04:34:33;16.90;98.30
20487;DHT22;10402;49.012;8.370;2023-05-09T04:36:58;16.90;98.30
20487;DHT22;10402;49.012;8.370;2023-05-09T04:39:24;16.90;98.30
20487;DHT22;10402;49.012;8.370;2023-05-09T04:41:50;16.90;98.30
20487;DHT22;10402;49.012;8.370;2023-05-09T04:44:16;16.90;98.30
20487;DHT22;10402;49.012;8.370;2023-05-09T04:46:42;16.90;98.30
20487;DHT22;10402;49.012;8.370;2023-05-09T04:49:08;16.90;98.30
20487;DHT22;10402;49.012;8.370;2023-05-09T04:51:34;16.90;98.30
20487;DHT22;10402;49.012;8.370;2023-05-09T04:53:59;16.90;98.30
20487;DHT22;10402;49.012;8.370;2023-05-09T04:56:25;16.90;98.30
20487;DHT22;10402;49.012;8.370;2023-05-09T04:58:50;16.90;98.30
20487;DHT22;10402;49.012;8.370;2023-05-09T05:01:17;16.90;98.40
20487;DHT22;10402;49.012;8.370;2023-05-09T05:03:42;17.00;98.50
20487;DHT22;10402;49.012;8.370;2023-05-09T05:06:08;17.00;98.40
20487;DHT22;10402;49.012;8.370;2023-05-09T05:08:33;17.00;98.40
20487;DHT22;10402;49.012;8.370;2023-05-09T05:10:59;17.00;98.40
20487;DHT22;10402;49.012;8.370;2023-05-09T05:13:24;17.00;98.40
20487;DHT22;10402;49.012;8.370;2023-05-09T05:15:50;17.00;98.40
20487;DHT22;10402;49.012;8.370;2023-05-09T05:18:16;17.00;98.40
20487;DHT22;10402;49.012;8.370;2023-05-09T05:20:42;17.00;98.40
20487;DHT22;10402;49.012;8.370;2023-05-09T05:23:08;17.00;98.40
20487;DHT22;10402;49.012;8.370;2023-05-09T05:25:33;17.00;98.50
20487;DHT22;10402;49.012;8.370;2023-05-09T05:27:59;17.00;98.50
20487;DHT22;10402;49.012;8.370;2023-05-09T05:30:25;17.00;98.50
20487;DHT22;10402;49.012;8.370;2023-05-09T05:32:50;17.00;98.60
20487;DHT22;10402;49.012;8.370;2023-05-09T05:35:16;17.10;98.60
20487;DHT22;10402;49.012;8.370;2023-05-09T05:37:42;17.10;98.50
20487;DHT22;10402;49.012;8.370;2023-05-09T05:40:08;17.20;98.50
20487;DHT22;10402;49.012;8.370;2023-05-09T05:42:34;17.20;98.40
20487;DHT22;10402;49.012;8.370;2023-05-09T05:45:00;17.30;98.40
20487;DHT22;10402;49.012;8.370;2023-05-09T05:47:32;17.20;98.30
20487;DHT22;10402;49.012;8.370;2023-05-09T05:50:02;17.20;98.30
20487;DHT22;10402;49.012;8.370;2023-05-09T05:52:27;17.30;98.30
20487;DHT22;10402;49.012;8.370;2023-05-09T05:54:53;17.30;98.30
20487;DHT22;10402;49.012;8.370;2023-05-09T05:57:19;17.30;98.30
20487;DHT22;10402;49.012;8.370;2023-05-09T05:59:49;17.30;98.30
20487;DHT22;10402;49.012;8.370;2023-05-09T06:02:18;17.30;98.30
20487;DHT22;10402;49.012;8.370;2023-05-09T06:04:43;17.40;98.30
20487;DHT22;10402;49.012;8.370;2023-05-09T06:07:10;17.40;98.30
20487;DHT22;10402;49.012;8.370;2023-05-09T06:09:37;17.40;98.20
20487;DHT22;10402;49.012;8.370;2023-05-09T06:12:02;17.40;98.10
20487;DHT22;10402;49.012;8.370;2023-05-09T06:14:28;17.50;98.20
20487;DHT22;10402;49.012;8.370;2023-05-09T06:16:53;17.50;98.20
20487;DHT22;10402;49.012;8.370;2023-05-09T06:19:19;17.50;98.20
20487;DHT22;10402;49.012;8.370;2023-05-09T06:21:44;17.60;98.20
20487;DHT22;10402;49.012;8.370;2023-05-09T06:24:10;17.60;98.10
20487;DHT22;10402;49.012;8.370;2023-05-09T06:26:36;17.60;98.10
20487;DHT22;10402;49.012;8.370;2023-05-09T06:29:02;17.50;98.10
20487;DHT22;10402;49.012;8.370;2023-05-09T06:31:28;17.50;98.10
20487;DHT22;10402;49.012;8.370;2023-05-09T06:33:54;17.50;98.10
20487;DHT22;10402;49.012;8.370;2023-05-09T06:36:19;17.50;98.10
20487;DHT22;10402;49.012;8.370;2023-05-09T06:38:45;17.50;98.20
20487;DHT22;10402;49.012;8.370;2023-05-09T06:41:10;17.50;98.20
20487;DHT22;10402;49.012;8.370;2023-05-09T06:43:36;17.50;98.20
20487;DHT22;10402;49.012;8.370;2023-05-09T06:46:01;17.60;98.20
20487;DHT22;10402;49.012;8.370;2023-05-09T06:48:27;17.60;98.20
20487;DHT22;10402;49.012;8.370;2023-05-09T06:50:52;17.60;98.10
20487;DHT22;10402;49.012;8.370;2023-05-09T06:53:18;17.70;98.10
20487;DHT22;10402;49.012;8.370;2023-05-09T06:55:43;17.80;98.10
20487;DHT22;10402;49.012;8.370;2023-05-09T06:58:09;17.80;98.00
20487;DHT22;10402;49.012;8.370;2023-05-09T07:00:35;17.90;98.00
20487;DHT22;10402;49.012;8.370;2023-05-09T07:03:01;18.00;97.90
20487;DHT22;10402;49.012;8.370;2023-05-09T07:05:26;18.00;97.90
20487;DHT22;10402;49.012;8.370;2023-05-09T07:07:52;18.10;97.90
20487;DHT22;10402;49.012;8.370;2023-05-09T07:10:20;18.10;97.80
20487;DHT22;10402;49.012;8.370;2023-05-09T07:12:46;18.20;97.80
20487;DHT22;10402;49.012;8.370;2023-05-09T07:15:12;18.30;97.80
20487;DHT22;10402;49.012;8.370;2023-05-09T07:17:38;18.30;97.80
20487;DHT22;10402;49.012;8.370;2023-05-09T07:20:04;18.40;97.80
20487;DHT22;10402;49.012;8.370;2023-05-09T07:22:30;18.40;97.60
20487;DHT22;10402;49.012;8.370;2023-05-09T07:24:55;18.40;97.60
20487;DHT22;10402;49.012;8.370;2023-05-09T07:27:21;18.50;97.60
20487;DHT22;10402;49.012;8.370;2023-05-09T07:29:46;18.50;97.60
20487;DHT22;10402;49.012;8.370;2023-05-09T07:32:13;18.60;97.50
20487;DHT22;10402;49.012;8.370;2023-05-09T07:34:39;18.70;97.50
20487;DHT22;10402;49.012;8.370;2023-05-09T07:37:04;18.60;97.30
20487;DHT22;10402;49.012;8.370;2023-05-09T07:39:30;18.60;97.40
20487;DHT22;10402;49.012;8.370;2023-05-09T07:41:55;18.60;97.30
20487;DHT22;10402;49.012;8.370;2023-05-09T07:44:21;18.60;97.30
20487;DHT22;10402;49.012;8.370;2023-05-09T07:46:46;18.60;97.40
20487;DHT22;10402;49.012;8.370;2023-05-09T07:49:12;18.50;97.30
20487;DHT22;10402;49.012;8.370;2023-05-09T07:51:37;18.60;97.30
20487;DHT22;10402;49.012;8.370;2023-05-09T07:54:03;18.60;97.30
20487;DHT22;10402;49.012;8.370;2023-05-09T07:56:28;18.60;97.60
20487;DHT22;10402;49.012;8.370;2023-05-09T07:58:54;18.60;97.20
20487;DHT22;10402;49.012;8.370;2023-05-09T08:01:19;18.60;97.20
20487;DHT22;10402;49.012;8.370;2023-05-09T08:03:45;18.60;97.10
20487;DHT22;10402;49.012;8.370;2023-05-09T08:06:10;18.60;97.20
20487;DHT22;10402;49.012;8.370;2023-05-09T08:08:36;18.70;97.20
20487;DHT22;10402;49.012;8.370;2023-05-09T08:11:03;18.80;97.10
20487;DHT22;10402;49.012;8.370;2023-05-09T08:13:29;18.90;96.90
20487;DHT22;10402;49.012;8.370;2023-05-09T08:15:55;19.00;96.90
20487;DHT22;10402;49.012;8.370;2023-05-09T08:18:21;19.10;96.90
20487;DHT22;10402;49.012;8.370;2023-05-09T08:20:46;19.10;96.70
20487;DHT22;10402;49.012;8.370;2023-05-09T08:23:12;19.10;96.70
20487;DHT22;10402;49.012;8.370;2023-05-09T08:25:37;19.10;96.70
20487;DHT22;10402;49.012;8.370;2023-05-09T08:28:03;19.10;96.60
20487;DHT22;10402;49.012;8.370;2023-05-09T08:30:29;19.20;96.60
20487;DHT22;10402;49.012;8.370;2023-05-09T08:32:54;19.30;96.50
20487;DHT22;10402;49.012;8.370;2023-05-09T08:35:20;19.30;96.50
20487;DHT22;10402;49.012;8.370;2023-05-09T08:37:46;19.30;96.40
20487;DHT22;10402;49.012;8.370;2023-05-09T08:40:12;19.30;96.40
20487;DHT22;10402;49.012;8.370;2023-05-09T08:42:38;19.30;96.40
20487;DHT22;10402;49.012;8.370;2023-05-09T08:45:12;19.30;96.40
20487;DHT22;10402;49.012;8.370;2023-05-09T08:47:41;19.30;96.40
20487;DHT22;10402;49.012;8.370;2023-05-09T08:50:08;19.20;96.40
20487;DHT22;10402;49.012;8.370;2023-05-09T08:52:34;19.20;96.40
20487;DHT22;10402;49.012;8.370;2023-05-09T08:55:01;19.30;96.40
20487;DHT22;10402;49.012;8.370;2023-05-09T08:57:31;19.30;96.40
20487;DHT22;10402;49.012;8.370;2023-05-09T08:59:57;19.30;96.40
20487;DHT22;10402;49.012;8.370;2023-05-09T09:02:23;19.30;96.50
20487;DHT22;10402;49.012;8.370;2023-05-09T09:04:48;19.30;96.50
20487;DHT22;10402;49.012;8.370;2023-05-09T09:07:14;19.40;96.60
20487;DHT22;10402;49.012;8.370;2023-05-09T09:09:46;19.40;96.40
20487;DHT22;10402;49.012;8.370;2023-05-09T09:12:14;19.40;96.40
20487;DHT22;10402;49.012;8.370;2023-05-09T09:14:42;19.50;96.40
20487;DHT22;10402;49.012;8.370;2023-05-09T09:17:11;19.60;96.30
20487;DHT22;10402;49.012;8.370;2023-05-09T09:19:39;19.70;96.10
20487;DHT22;10402;49.012;8.370;2023-05-09T09:22:07;19.70;96.00
20487;DHT22;10402;49.012;8.370;2023-05-09T09:24:34;19.70;95.90
20487;DHT22;10402;49.012;8.370;2023-05-09T09:27:04;19.70;95.80
20487;DHT22;10402;49.012;8.370;2023-05-09T09:29:31;19.70;95.70
20487;DHT22;10402;49.012;8.370;2023-05-09T09:32:01;19.80;95.80
20487;DHT22;10402;49.012;8.370;2023-05-09T09:34:27;19.90;95.80
20487;DHT22;10402;49.012;8.370;2023-05-09T09:36:52;20.00;96.10
20487;DHT22;10402;49.012;8.370;2023-05-09T09:39:18;20.00;95.60
20487;DHT22;10402;49.012;8.370;2023-05-09T09:41:44;20.10;95.50
20487;DHT22;10402;49.012;8.370;2023-05-09T09:44:15;20.10;95.50
20487;DHT22;10402;49.012;8.370;2023-05-09T09:46:45;20.10;95.30
20487;DHT22;10402;49.012;8.370;2023-05-09T09:49:12;20.10;95.30
20487;DHT22;10402;49.012;8.370;2023-05-09T09:51:39;20.20;95.20
20487;DHT22;10402;49.012;8.370;2023-05-09T09:54:08;20.10;95.10
20487;DHT22;10402;49.012;8.370;2023-05-09T09:56:45;20.10;95.10
20487;DHT22;10402;49.012;8.370;2023-05-09T09:59:13;20.00;95.00
20487;DHT22;10402;49.012;8.370;2023-05-09T10:02:03;20.10;95.10
20487;DHT22;10402;49.012;8.370;2023-05-09T10:04:33;20.10;95.00
20487;DHT22;10402;49.012;8.370;2023-05-09T10:07:00;20.00;94.90
20487;DHT22;10402;49.012;8.370;2023-05-09T10:09:31;20.00;94.90
20487;DHT22;10402;49.012;8.370;2023-05-09T10:12:01;20.00;95.00
20487;DHT22;10402;49.012;8.370;2023-05-09T10:14:27;20.10;95.00
20487;DHT22;10402;49.012;8.370;2023-05-09T10:16:55;20.10;95.00
20487;DHT22;10402;49.012;8.370;2023-05-09T10:19:22;20.10;95.00
20487;DHT22;10402;49.012;8.370;2023-05-09T10:21:55;20.10;94.80
20487;DHT22;10402;49.012;8.370;2023-05-09T10:24:30;20.10;94.70
20487;DHT22;10402;49.012;8.370;2023-05-09T10:27:02;20.10;94.60
20487;DHT22;10402;49.012;8.370;2023-05-09T10:29:36;20.20;94.60
20487;DHT22;10402;49.012;8.370;2023-05-09T10:32:29;20.10;94.60
20487;DHT22;10402;49.012;8.370;2023-05-09T10:34:54;20.10;94.60
20487;DHT22;10402;49.012;8.370;2023-05-09T10:37:22;20.10;94.60
20487;DHT22;10402;49.012;8.370;2023-05-09T10:39:49;20.10;94.70
20487;DHT22;10402;49.012;8.370;2023-05-09T10:42:19;20.00;94.70
20487;DHT22;10402;49.012;8.370;2023-05-09T10:44:48;20.00;94.90
20487;DHT22;10402;49.012;8.370;2023-05-09T10:47:14;20.00;94.90
20487;DHT22;10402;49.012;8.370;2023-05-09T10:49:41;19.90;95.00
20487;DHT22;10402;49.012;8.370;2023-05-09T10:52:07;19.90;95.00
20487;DHT22;10402;49.012;8.370;2023-05-09T10:54:35;19.90;95.10
20487;DHT22;10402;49.012;8.370;2023-05-09T10:57:01;19.90;95.20
20487;DHT22;10402;49.012;8.370;2023-05-09T10:59:41;19.90;95.10
20487;DHT22;10402;49.012;8.370;2023-05-09T11:02:17;19.90;94.90
20487;DHT22;10402;49.012;8.370;2023-05-09T11:04:44;19.90;94.80
20487;DHT22;10402;49.012;8.370;2023-05-09T11:07:26;19.70;94.80
20487;DHT22;10402;49.012;8.370;2023-05-09T11:10:15;19.80;95.00
20487;DHT22;10402;49.012;8.370;2023-05-09T11:12:56;19.80;95.00
20487;DHT22;10402;49.012;8.370;2023-05-09T11:15:22;19.80;94.90
20487;DHT22;10402;49.012;8.370;2023-05-09T11:17:50;19.80;94.90
20487;DHT22;10402;49.012;8.370;2023-05-09T11:20:28;19.90;94.90
20487;DHT22;10402;49.012;8.370;2023-05-09T11:22:56;19.90;94.70
20487;DHT22;10402;49.012;8.370;2023-05-09T11:25:24;19.90;94.70
20487;DHT22;10402;49.012;8.370;2023-05-09T11:27:58;19.90;94.70
20487;DHT22;10402;49.012;8.370;2023-05-09T11:30:35;19.90;94.60
20487;DHT22;10402;49.012;8.370;2023-05-09T11:33:00;19.80;94.50
20487;DHT22;10402;49.012;8.370;2023-05-09T11:35:26;19.80;94.50
20487;DHT22;10402;49.012;8.370;2023-05-09T11:40:25;19.80;94.50
20487;DHT22;10402;49.012;8.370;2023-05-09T11:42:52;19.80;94.40
20487;DHT22;10402;49.012;8.370;2023-05-09T11:45:19;19.90;94.50
20487;DHT22;10402;49.012;8.370;2023-05-09T11:47:46;19.90;94.50
20487;DHT22;10402;49.012;8.370;2023-05-09T11:50:13;20.00;94.40
20487;DHT22;10402;49.012;8.370;2023-05-09T11:52:39;20.00;94.30
20487;DHT22;10402;49.012;8.370;2023-05-09T11:55:16;20.00;94.10
20487;DHT22;10402;49.012;8.370;2023-05-09T11:57:50;19.90;94.10
20487;DHT22;10402;49.012;8.370;2023-05-09T12:00:18;20.00;94.00
20487;DHT22;10402;49.012;8.370;2023-05-09T12:02:45;20.00;94.00
20487;DHT22;10402;49.012;8.370;2023-05-09T12:05:16;20.10;93.90
20487;DHT22;10402;49.012;8.370;2023-05-09T12:07:42;20.10;93.80
20487;DHT22;10402;49.012;8.370;2023-05-09T12:10:15;20.10;93.70
20487;DHT22;10402;49.012;8.370;2023-05-09T12:12:48;20.20;93.70
20487;DHT22;10402;49.012;8.370;2023-05-09T12:15:15;20.30;93.70
20487;DHT22;10402;49.012;8.370;2023-05-09T12:17:42;20.30;93.60
20487;DHT22;10402;49.012;8.370;2023-05-09T12:20:08;20.30;93.60
20487;DHT22;10402;49.012;8.370;2023-05-09T12:22:34;20.40;93.60
20487;DHT22;10402;49.012;8.370;2023-05-09T12:25:05;20.40;93.50
20487;DHT22;10402;49.012;8.370;2023-05-09T12:27:32;20.40;93.40
20487;DHT22;10402;49.012;8.370;2023-05-09T12:30:03;20.40;93.40
20487;DHT22;10402;49.012;8.370;2023-05-09T12:32:33;20.50;93.40
20487;DHT22;10402;49.012;8.370;2023-05-09T12:34:59;20.50;93.20
20487;DHT22;10402;49.012;8.370;2023-05-09T12:37:25;20.50;93.20
20487;DHT22;10402;49.012;8.370;2023-05-09T12:42:27;20.40;93.10
20487;DHT22;10402;49.012;8.370;2023-05-09T12:44:53;20.40;93.10
20487;DHT22;10402;49.012;8.370;2023-05-09T12:47:19;20.40;93.10
20487;DHT22;10402;49.012;8.370;2023-05-09T12:49:48;20.30;93.10
20487;DHT22;10402;49.012;8.370;2023-05-09T12:52:17;20.30;93.00
20487;DHT22;10402;49.012;8.370;2023-05-09T12:54:45;20.20;93.00
20487;DHT22;10402;49.012;8.370;2023-05-09T12:57:20;20.10;93.00
20487;DHT22;10402;49.012;8.370;2023-05-09T12:59:47;20.10;93.20
20487;DHT22;10402;49.012;8.370;2023-05-09T13:02:13;20.10;93.10
20487;DHT22;10402;49.012;8.370;2023-05-09T13:04:38;20.10;93.10
20487;DHT22;10402;49.012;8.370;2023-05-09T13:07:08;20.10;93.10
20487;DHT22;10402;49.012;8.370;2023-05-09T13:09:34;20.10;93.10
20487;DHT22;10402;49.012;8.370;2023-05-09T13:12:02;20.10;93.10
20487;DHT22;10402;49.012;8.370;2023-05-09T13:14:34;20.20;93.10
20487;DHT22;10402;49.012;8.370;2023-05-09T13:16:59;20.20;93.10
20487;DHT22;10402;49.012;8.370;2023-05-09T13:19:25;20.30;93.10
20487;DHT22;10402;49.012;8.370;2023-05-09T13:21:53;20.40;93.10
20487;DHT22;10402;49.012;8.370;2023-05-09T13:24:19;20.40;93.00
20487;DHT22;10402;49.012;8.370;2023-05-09T13:26:45;20.50;92.90
20487;DHT22;10402;49.012;8.370;2023-05-09T13:29:10;20.50;92.70
20487;DHT22;10402;49.012;8.370;2023-05-09T13:31:36;20.50;92.70
20487;DHT22;10402;49.012;8.370;2023-05-09T13:34:01;20.60;92.80
20487;DHT22;10402;49.012;8.370;2023-05-09T13:36:27;20.60;92.70
20487;DHT22;10402;49.012;8.370;2023-05-09T13:38:52;20.70;92.40
20487;DHT22;10402;49.012;8.370;2023-05-09T13:41:18;20.70;92.30
20487;DHT22;10402;49.012;8.370;2023-05-09T13:43:48;20.70;92.20
20487;DHT22;10402;49.012;8.370;2023-05-09T13:46:13;20.80;92.00
20487;DHT22;10402;49.012;8.370;2023-05-09T13:48:39;20.80;92.00
20487;DHT22;10402;49.012;8.370;2023-05-09T13:51:06;20.80;91.80
20487;DHT22;10402;49.012;8.370;2023-05-09T13:53:32;20.70;91.70
20487;DHT22;10402;49.012;8.370;2023-05-09T13:55:57;20.70;91.60
20487;DHT22;10402;49.012;8.370;2023-05-09T13:58:23;20.70;91.60
20487;DHT22;10402;49.012;8.370;2023-05-09T14:00:48;20.70;91.60
20487;DHT22;10402;49.012;8.370;2023-05-09T14:03:14;20.70;91.50
20487;DHT22;10402;49.012;8.370;2023-05-09T14:05:40;20.70;91.50
20487;DHT22;10402;49.012;8.370;2023-05-09T14:08:06;20.70;91.80
20487;DHT22;10402;49.012;8.370;2023-05-09T14:10:32;20.70;91.40
20487;DHT22;10402;49.012;8.370;2023-05-09T14:12:57;20.80;91.30
20487;DHT22;10402;49.012;8.370;2023-05-09T14:15:23;20.80;91.20
20487;DHT22;10402;49.012;8.370;2023-05-09T14:17:49;20.80;91.10
20487;DHT22;10402;49.012;8.370;2023-05-09T14:20:15;20.90;91.10
20487;DHT22;10402;49.012;8.370;2023-05-09T14:22:40;20.90;91.10
20487;DHT22;10402;49.012;8.370;2023-05-09T14:25:06;20.90;91.10
20487;DHT22;10402;49.012;8.370;2023-05-09T14:27:32;21.00;91.10
20487;DHT22;10402;49.012;8.370;2023-05-09T14:30:02;21.00;91.00
20487;DHT22;10402;49.012;8.370;2023-05-09T14:32:27;21.00;90.90
20487;DHT22;10402;49.012;8.370;2023-05-09T14:34:53;21.00;90.70
20487;DHT22;10402;49.012;8.370;2023-05-09T14:37:18;20.90;90.70
20487;DHT22;10402;49.012;8.370;2023-05-09T14:39:44;20.90;90.70
20487;DHT22;10402;49.012;8.370;2023-05-09T14:42:10;20.90;90.60
20487;DHT22;10402;49.012;8.370;2023-05-09T14:44:39;20.90;90.60
20487;DHT22;10402;49.012;8.370;2023-05-09T14:47:06;21.00;90.60
20487;DHT22;10402;49.012;8.370;2023-05-09T14:49:32;21.10;90.70
20487;DHT22;10402;49.012;8.370;2023-05-09T14:51:57;21.10;90.60
20487;DHT22;10402;49.012;8.370;2023-05-09T14:54:23;21.10;90.50
20487;DHT22;10402;49.012;8.370;2023-05-09T14:56:49;21.10;90.50
20487;DHT22;10402;49.012;8.370;2023-05-09T14:59:15;21.10;90.50
20487;DHT22;10402;49.012;8.370;2023-05-09T15:01:40;21.10;90.50
20487;DHT22;10402;49.012;8.370;2023-05-09T15:04:06;21.10;90.50
20487;DHT22;10402;49.012;8.370;2023-05-09T15:06:32;21.10;90.40
20487;DHT22;10402;49.012;8.370;2023-05-09T15:08:57;21.20;90.40
20487;DHT22;10402;49.012;8.370;2023-05-09T15:11:23;21.10;90.30
20487;DHT22;10402;49.012;8.370;2023-05-09T15:13:51;21.10;90.30
20487;DHT22;10402;49.012;8.370;2023-05-09T15:16:17;21.10;90.20
20487;DHT22;10402;49.012;8.370;2023-05-09T15:18:42;21.10;90.10
20487;DHT22;10402;49.012;8.370;2023-05-09T15:21:10;21.10;90.10
20487;DHT22;10402;49.012;8.370;2023-05-09T15:23:36;21.10;90.00
20487;DHT22;10402;49.012;8.370;2023-05-09T15:26:04;21.10;90.00
20487;DHT22;10402;49.012;8.370;2023-05-09T15:28:33;21.10;90.00
20487;DHT22;10402;49.012;8.370;2023-05-09T15:30:59;21.10;90.00
20487;DHT22;10402;49.012;8.370;2023-05-09T15:33:24;21.10;89.90
20487;DHT22;10402;49.012;8.370;2023-05-09T15:35:55;21.00;89.60
20487;DHT22;10402;49.012;8.370;2023-05-09T15:38:21;21.00;89.70
20487;DHT22;10402;49.012;8.370;2023-05-09T15:40:46;21.00;89.80
20487;DHT22;10402;49.012;8.370;2023-05-09T15:43:12;21.00;89.80
20487;DHT22;10402;49.012;8.370;2023-05-09T15:45:38;21.00;89.60
20487;DHT22;10402;49.012;8.370;2023-05-09T15:48:09;21.10;89.60
20487;DHT22;10402;49.012;8.370;2023-05-09T15:50:35;21.00;89.50